createdAt,value
2023-02-15T00:01:21.172Z,100540.40
2023-02-15T00:03:57.547Z,100539.80
2023-02-15T00:06:35.070Z,100539.80
2023-02-15T00:09:12.556Z,100542.80
2023-02-15T00:11:52.093Z,100535.00
2023-02-15T00:14:29.634Z,100531.40
2023-02-15T00:17:06.175Z,100536.00
2023-02-15T00:19:42.511Z,100529.60
2023-02-15T00:22:18.712Z,100532.00
2023-02-15T00:24:55.023Z,100533.00
2023-02-15T00:27:31.622Z,100532.80
2023-02-15T00:30:10.010Z,100526.40
2023-02-15T00:32:46.370Z,100522.60
2023-02-15T00:35:22.897Z,100524.80
2023-02-15T00:37:59.560Z,100523.40
2023-02-15T00:40:35.879Z,100520.80
2023-02-15T00:43:12.121Z,100519.40
2023-02-15T00:45:53.768Z,100513.80
2023-02-15T00:48:30.758Z,100513.80
2023-02-15T00:51:07.388Z,100515.20
2023-02-15T00:53:43.851Z,100510.80
2023-02-15T00:56:20.322Z,100507.60
2023-02-15T00:58:56.654Z,100503.40
2023-02-15T01:01:33.000Z,100505.00
2023-02-15T01:04:10.251Z,100507.80
2023-02-15T01:06:46.703Z,100504.20
2023-02-15T01:09:23.425Z,100499.20
2023-02-15T01:11:59.852Z,100495.80
2023-02-15T01:14:36.542Z,100485.60
2023-02-15T01:17:14.854Z,100490.20
2023-02-15T01:19:52.369Z,100486.40
2023-02-15T01:22:29.158Z,100485.00
2023-02-15T01:25:05.928Z,100484.20
2023-02-15T01:27:42.238Z,100485.00
2023-02-15T01:30:20.707Z,100482.00
2023-02-15T01:32:58.359Z,100484.00
2023-02-15T01:35:35.247Z,100482.00
2023-02-15T01:38:11.596Z,100479.20
2023-02-15T01:40:47.953Z,100477.80
2023-02-15T01:43:40.904Z,100475.60
2023-02-15T01:46:21.312Z,100472.20
2023-02-15T01:49:11.078Z,100474.20
2023-02-15T01:51:53.561Z,100478.00
2023-02-15T01:54:36.970Z,100472.80
2023-02-15T01:57:21.712Z,100470.20
2023-02-15T02:00:04.051Z,100468.00
2023-02-15T02:02:56.215Z,100465.40
2023-02-15T02:05:36.444Z,100458.80
2023-02-15T02:08:14.268Z,100451.20
2023-02-15T02:10:50.672Z,100449.20
2023-02-15T02:13:27.144Z,100442.80
2023-02-15T02:16:13.852Z,100440.20
2023-02-15T02:19:12.291Z,100438.40
2023-02-15T02:22:52.439Z,100438.40
2023-02-15T02:26:43.126Z,100438.80
2023-02-15T02:30:38.293Z,100438.60
2023-02-15T02:33:56.368Z,100435.20
2023-02-15T02:36:48.530Z,100435.60
2023-02-15T02:39:44.825Z,100436.80
2023-02-15T02:42:34.545Z,100432.40
2023-02-15T02:45:18.846Z,100425.60
2023-02-15T02:48:03.129Z,100428.60
2023-02-15T02:50:43.195Z,100428.40
2023-02-15T02:53:19.667Z,100421.20
2023-02-15T02:56:01.843Z,100424.60
2023-02-15T02:58:48.315Z,100421.40
2023-02-15T03:01:34.222Z,100424.40
2023-02-15T03:04:16.532Z,100425.80
2023-02-15T03:06:57.503Z,100421.00
2023-02-15T03:09:43.639Z,100419.60
2023-02-15T03:12:26.668Z,100420.20
2023-02-15T03:15:12.131Z,100418.60
2023-02-15T03:17:55.473Z,100415.20
2023-02-15T03:20:38.890Z,100414.40
2023-02-15T03:23:24.122Z,100411.00
2023-02-15T03:26:08.472Z,100411.00
2023-02-15T03:28:52.071Z,100408.20
2023-02-15T03:31:34.077Z,100409.40
2023-02-15T03:34:15.348Z,100411.00
2023-02-15T03:37:01.948Z,100410.20
2023-02-15T03:39:45.444Z,100402.00
2023-02-15T03:42:31.847Z,100402.80
2023-02-15T03:45:16.916Z,100400.40
2023-02-15T03:47:58.070Z,100396.80
2023-02-15T03:50:55.910Z,100395.20
2023-02-15T03:53:32.898Z,100390.40
2023-02-15T03:56:09.659Z,100390.60
2023-02-15T03:59:03.349Z,100384.20
2023-02-15T04:02:01.866Z,100392.80
2023-02-15T04:04:48.387Z,100391.20
2023-02-15T04:07:25.184Z,100390.00
2023-02-15T04:10:18.672Z,100394.20
2023-02-15T04:12:54.985Z,100393.20
2023-02-15T04:15:49.285Z,100395.00
2023-02-15T04:18:43.450Z,100395.00
2023-02-15T04:21:37.789Z,100391.60
2023-02-15T04:24:33.023Z,100391.40
2023-02-15T04:27:10.181Z,100393.20
2023-02-15T04:29:46.469Z,100392.60
2023-02-15T04:32:22.992Z,100391.60
2023-02-15T04:34:59.389Z,100394.20
2023-02-15T04:37:35.666Z,100389.20
2023-02-15T04:40:18.681Z,100390.00
2023-02-15T04:42:55.905Z,100387.00
2023-02-15T04:45:32.256Z,100388.20
2023-02-15T04:48:09.726Z,100385.20
2023-02-15T04:50:46.389Z,100383.60
2023-02-15T04:53:22.869Z,100382.80
2023-02-15T04:55:59.569Z,100385.20
2023-02-15T04:58:36.278Z,100382.60
2023-02-15T05:01:13.277Z,100383.20
2023-02-15T05:03:49.849Z,100379.40
2023-02-15T05:06:26.749Z,100382.20
2023-02-15T05:09:03.217Z,100387.40
2023-02-15T05:11:39.515Z,100389.20
2023-02-15T05:14:15.847Z,100390.40
2023-02-15T05:16:52.174Z,100392.60
2023-02-15T05:19:28.825Z,100393.40
2023-02-15T05:22:05.111Z,100394.00
2023-02-15T05:24:59.126Z,100394.80
2023-02-15T05:27:53.172Z,100398.00
2023-02-15T05:30:30.274Z,100399.60
2023-02-15T05:33:06.959Z,100398.00
2023-02-15T05:35:43.851Z,100398.00
2023-02-15T05:38:20.140Z,100397.20
2023-02-15T05:40:57.989Z,100396.80
2023-02-15T05:43:34.969Z,100400.20
2023-02-15T05:46:12.294Z,100398.40
2023-02-15T05:48:48.600Z,100397.80
2023-02-15T05:51:25.300Z,100400.80
2023-02-15T05:54:01.518Z,100397.40
2023-02-15T05:56:37.721Z,100400.80
2023-02-15T05:59:14.378Z,100404.60
2023-02-15T06:01:50.647Z,100404.60
2023-02-15T06:04:27.211Z,100408.80
2023-02-15T06:07:03.703Z,100404.20
2023-02-15T06:09:40.153Z,100403.80
2023-02-15T06:12:16.431Z,100402.40
2023-02-15T06:14:52.807Z,100400.00
2023-02-15T06:17:29.498Z,100399.60
2023-02-15T06:20:07.935Z,100397.40
2023-02-15T06:22:44.401Z,100401.40
2023-02-15T06:25:22.021Z,100402.00
2023-02-15T06:27:58.361Z,100399.20
2023-02-15T06:30:35.602Z,100405.20
2023-02-15T06:33:11.850Z,100405.20
2023-02-15T06:35:48.612Z,100403.00
2023-02-15T06:38:24.944Z,100409.40
2023-02-15T06:41:01.384Z,100411.20
2023-02-15T06:43:39.987Z,100408.60
2023-02-15T06:46:17.315Z,100409.60
2023-02-15T06:48:53.852Z,100408.00
2023-02-15T06:51:30.173Z,100405.20
2023-02-15T06:54:06.727Z,100405.00
2023-02-15T06:56:43.248Z,100406.40
2023-02-15T06:59:19.958Z,100412.20
2023-02-15T07:01:56.556Z,100410.80
2023-02-15T07:04:32.941Z,100411.80
2023-02-15T07:07:12.594Z,100406.80
2023-02-15T07:09:48.963Z,100405.40
2023-02-15T07:12:43.864Z,100400.20
2023-02-15T07:15:23.170Z,100399.60
2023-02-15T07:18:00.881Z,100393.80
2023-02-15T07:20:37.964Z,100397.40
2023-02-15T07:23:14.263Z,100395.80
2023-02-15T07:25:50.592Z,100391.20
2023-02-15T07:28:27.162Z,100394.20
2023-02-15T07:31:04.965Z,100395.40
2023-02-15T07:33:41.515Z,100393.40
2023-02-15T07:36:17.822Z,100392.60
2023-02-15T07:38:54.265Z,100387.80
2023-02-15T07:41:30.530Z,100389.80
2023-02-15T07:44:07.403Z,100389.00
2023-02-15T07:46:44.145Z,100386.20
2023-02-15T07:49:21.051Z,100389.20
2023-02-15T07:51:57.531Z,100388.80
2023-02-15T07:54:34.286Z,100387.20
2023-02-15T07:57:10.667Z,100384.60
2023-02-15T07:59:47.033Z,100384.00
2023-02-15T08:02:23.616Z,100386.80
2023-02-15T08:05:00.102Z,100384.20
2023-02-15T08:07:36.799Z,100382.60
2023-02-15T08:10:34.711Z,100383.00
2023-02-15T08:13:11.101Z,100378.40
2023-02-15T08:15:53.833Z,100376.60
2023-02-15T08:18:30.260Z,100380.60
2023-02-15T08:21:07.436Z,100379.20
2023-02-15T08:23:43.707Z,100377.80
2023-02-15T08:26:20.333Z,100368.60
2023-02-15T08:28:57.527Z,100366.80
2023-02-15T08:31:34.090Z,100366.20
2023-02-15T08:34:12.575Z,100366.00
2023-02-15T08:36:49.487Z,100362.80
2023-02-15T08:39:26.275Z,100366.00
2023-02-15T08:42:05.028Z,100364.40
2023-02-15T08:44:41.755Z,100363.00
2023-02-15T08:47:18.083Z,100362.80
2023-02-15T08:49:55.065Z,100362.80
2023-02-15T08:52:31.731Z,100360.40
2023-02-15T08:55:09.444Z,100356.00
2023-02-15T08:57:47.019Z,100349.60
2023-02-15T09:00:26.163Z,100352.00
2023-02-15T09:03:02.501Z,100349.40
2023-02-15T09:05:39.006Z,100348.00
2023-02-15T09:08:15.502Z,100350.40
2023-02-15T09:10:51.777Z,100349.20
2023-02-15T09:13:28.273Z,100345.60
2023-02-15T09:16:11.399Z,100343.40
2023-02-15T09:18:48.503Z,100346.40
2023-02-15T09:21:27.530Z,100346.20
2023-02-15T09:24:08.975Z,100348.00
2023-02-15T09:26:50.157Z,100348.00
2023-02-15T09:29:26.629Z,100342.60
2023-02-15T09:32:02.917Z,100344.60
2023-02-15T09:34:39.509Z,100339.60
2023-02-15T09:37:15.740Z,100338.20
2023-02-15T09:39:52.072Z,100340.00
2023-02-15T09:43:00.385Z,100341.20
2023-02-15T09:46:08.736Z,100340.00
2023-02-15T09:48:54.557Z,100333.00
2023-02-15T09:52:28.847Z,100333.00
2023-02-15T09:55:27.062Z,100329.60
2023-02-15T09:58:19.014Z,100320.00
2023-02-15T10:01:07.485Z,100317.00
2023-02-15T10:04:23.180Z,100309.80
2023-02-15T10:07:12.908Z,100308.80
2023-02-15T10:10:12.361Z,100304.00
2023-02-15T10:13:20.258Z,100295.80
2023-02-15T10:16:17.774Z,100292.80
2023-02-15T10:19:06.998Z,100292.20
2023-02-15T10:22:05.713Z,100288.80
2023-02-15T10:25:14.783Z,100282.00
2023-02-15T10:27:53.957Z,100282.80
2023-02-15T10:30:42.485Z,100279.60
2023-02-15T10:33:42.554Z,100273.60
2023-02-15T10:36:50.240Z,100274.80
2023-02-15T10:39:40.728Z,100273.80
2023-02-15T10:42:32.906Z,100273.20
2023-02-15T10:45:23.458Z,100267.00
2023-02-15T10:48:24.893Z,100264.80
2023-02-15T10:51:05.284Z,100267.20
2023-02-15T10:54:08.958Z,100259.80
2023-02-15T10:56:58.598Z,100260.40
2023-02-15T11:00:00.693Z,100258.60
2023-02-15T11:02:59.271Z,100254.60
2023-02-15T11:05:57.331Z,100245.00
2023-02-15T11:08:37.825Z,100233.20
2023-02-15T11:11:22.911Z,100230.60
2023-02-15T11:14:07.767Z,100224.80
2023-02-15T11:16:52.662Z,100227.80
2023-02-15T11:19:36.787Z,100221.20
2023-02-15T11:22:17.763Z,100223.60
2023-02-15T11:24:58.645Z,100225.00
2023-02-15T11:27:37.193Z,100221.20
2023-02-15T11:30:24.771Z,100212.20
2023-02-15T11:33:07.700Z,100214.40
2023-02-15T11:35:55.989Z,100213.40
2023-02-15T11:38:36.576Z,100203.80
2023-02-15T11:41:17.998Z,100198.00
2023-02-15T11:44:07.167Z,100194.40
2023-02-15T11:46:43.896Z,100193.60
2023-02-15T11:49:36.268Z,100195.80
2023-02-15T11:52:19.624Z,100190.60
2023-02-15T11:54:57.348Z,100186.40
2023-02-15T11:57:42.888Z,100190.00
2023-02-15T12:00:36.889Z,100182.20
2023-02-15T12:03:29.371Z,100180.80
2023-02-15T12:06:15.329Z,100175.20
2023-02-15T12:09:02.509Z,100177.00
2023-02-15T12:11:46.035Z,100166.20
2023-02-15T12:14:22.503Z,100163.80
2023-02-15T12:17:00.732Z,100156.60
2023-02-15T12:19:42.692Z,100152.20
2023-02-15T12:22:30.465Z,100146.60
2023-02-15T12:25:25.486Z,100145.40
2023-02-15T12:28:02.134Z,100145.00
2023-02-15T12:30:45.069Z,100141.60
2023-02-15T12:33:34.824Z,100144.40
2023-02-15T12:36:24.915Z,100142.80
2023-02-15T12:39:30.144Z,100141.20
2023-02-15T12:42:21.091Z,100140.00
2023-02-15T12:45:23.235Z,100135.60
2023-02-15T12:48:19.139Z,100131.60
2023-02-15T12:51:11.601Z,100130.40
2023-02-15T12:53:48.086Z,100127.80
2023-02-15T12:56:31.480Z,100123.00
2023-02-15T12:59:23.158Z,100126.40
2023-02-15T13:02:04.179Z,100121.40
2023-02-15T13:04:49.904Z,100116.80
2023-02-15T13:07:33.067Z,100113.40
2023-02-15T13:10:25.629Z,100110.60
2023-02-15T13:13:04.075Z,100103.60
2023-02-15T13:15:48.268Z,100106.20
2023-02-15T13:18:36.470Z,100102.60
2023-02-15T13:21:21.314Z,100099.00
2023-02-15T13:24:04.892Z,100099.40
2023-02-15T13:26:45.824Z,100101.20
2023-02-15T13:29:30.113Z,100097.40
2023-02-15T13:32:23.434Z,100096.00
2023-02-15T13:35:06.424Z,100090.60
2023-02-15T13:38:27.902Z,100086.80
2023-02-15T13:41:13.599Z,100083.40
2023-02-15T13:44:06.370Z,100081.00
2023-02-15T13:47:08.026Z,100080.60
2023-02-15T13:50:06.714Z,100082.20
2023-02-15T13:52:59.166Z,100075.80
2023-02-15T13:55:46.619Z,100070.00
2023-02-15T13:58:57.267Z,100072.20
2023-02-15T14:01:46.472Z,100077.00
2023-02-15T14:05:00.764Z,100068.40
2023-02-15T14:07:58.669Z,100067.60
2023-02-15T14:10:59.709Z,100069.80
2023-02-15T14:14:14.111Z,100067.40
2023-02-15T14:17:07.062Z,100062.20
2023-02-15T14:19:54.823Z,100056.60
2023-02-15T14:22:41.991Z,100055.40
2023-02-15T14:25:37.818Z,100051.80
2023-02-15T14:28:24.920Z,100048.40
2023-02-15T14:31:02.936Z,100050.60
2023-02-15T14:33:49.619Z,100046.00
2023-02-15T14:36:27.894Z,100043.40
2023-02-15T14:39:42.893Z,100043.20
2023-02-15T14:42:33.766Z,100039.60
2023-02-15T14:45:27.403Z,100036.60
2023-02-15T14:48:15.471Z,100037.80
2023-02-15T14:50:53.336Z,100035.60
2023-02-15T14:53:45.496Z,100034.80
2023-02-15T14:56:34.480Z,100031.20
2023-02-15T14:59:27.939Z,100032.40
2023-02-15T15:02:19.405Z,100030.60
2023-02-15T15:05:11.927Z,100034.80
2023-02-15T15:07:54.830Z,100030.80
2023-02-15T15:10:50.227Z,100028.20
2023-02-15T15:14:05.219Z,100025.60
2023-02-15T15:16:57.670Z,100018.60
2023-02-15T15:20:09.398Z,100018.20
2023-02-15T15:22:48.497Z,100017.40
2023-02-15T15:25:50.047Z,100011.60
2023-02-15T15:29:03.501Z,100011.80
2023-02-15T15:31:57.829Z,100009.20
2023-02-15T15:35:17.514Z,100011.00
2023-02-15T15:38:56.459Z,100012.20
2023-02-15T15:42:03.398Z,100006.00
2023-02-15T15:45:26.905Z,100004.20
2023-02-15T15:48:39.154Z,99999.40
2023-02-15T15:51:22.547Z,99998.00
2023-02-15T15:53:59.643Z,99999.80
2023-02-15T15:56:39.653Z,99998.20
2023-02-15T15:59:28.595Z,99997.20
2023-02-15T16:02:16.551Z,99996.20
2023-02-15T16:04:53.124Z,99990.60
2023-02-15T16:07:31.954Z,99990.40
2023-02-15T16:10:24.813Z,99991.60
2023-02-15T16:13:01.164Z,99990.60
2023-02-15T16:15:50.671Z,99989.40
2023-02-15T16:18:30.995Z,99990.00
2023-02-15T16:21:16.462Z,99989.20
2023-02-15T16:24:45.775Z,99987.00
2023-02-15T16:27:41.807Z,99985.60
2023-02-15T16:30:45.602Z,99985.40
2023-02-15T16:33:22.693Z,99984.60
2023-02-15T16:36:04.378Z,99982.80
2023-02-15T16:39:12.084Z,99980.40
2023-02-15T16:41:49.534Z,99986.20
2023-02-15T16:44:27.470Z,99979.00
2023-02-15T16:47:04.788Z,99980.60
2023-02-15T16:49:45.831Z,99979.40
2023-02-15T16:52:27.790Z,99982.60
2023-02-15T16:55:05.726Z,99980.20
2023-02-15T16:57:47.417Z,99979.60
2023-02-15T17:00:32.806Z,99983.00
2023-02-15T17:03:25.241Z,99980.20
2023-02-15T17:06:04.482Z,99980.20
2023-02-15T17:08:48.210Z,99977.60
2023-02-15T17:11:38.571Z,99977.80
2023-02-15T17:14:42.135Z,99975.60
2023-02-15T17:17:22.782Z,99975.80
2023-02-15T17:20:00.544Z,99973.00
2023-02-15T17:22:41.647Z,99971.60
2023-02-15T17:25:34.105Z,99968.00
2023-02-15T17:28:23.506Z,99970.80
2023-02-15T17:31:01.957Z,99972.60
2023-02-15T17:33:44.410Z,99968.40
2023-02-15T17:36:25.373Z,99967.20
2023-02-15T17:39:24.666Z,99963.00
2023-02-15T17:42:00.914Z,99964.40
2023-02-15T17:44:37.400Z,99965.80
2023-02-15T17:47:21.673Z,99963.00
2023-02-15T17:49:58.631Z,99963.00
2023-02-15T17:52:38.378Z,99959.20
2023-02-15T17:55:40.170Z,99953.20
2023-02-15T17:58:20.196Z,99949.80
2023-02-15T18:01:19.804Z,99951.20
2023-02-15T18:04:15.185Z,99948.80
2023-02-15T18:07:09.642Z,99952.80
2023-02-15T18:10:03.607Z,99942.80
2023-02-15T18:12:41.507Z,99944.00
2023-02-15T18:15:17.990Z,99942.00
2023-02-15T18:17:54.379Z,99943.40
2023-02-15T18:20:37.312Z,99939.00
2023-02-15T18:23:17.973Z,99935.20
2023-02-15T18:25:54.398Z,99939.40
2023-02-15T18:28:30.763Z,99940.60
2023-02-15T18:31:07.844Z,99936.60
2023-02-15T18:33:49.521Z,99929.40
2023-02-15T18:36:32.709Z,99930.00
2023-02-15T18:39:25.564Z,99926.20
2023-02-15T18:42:03.384Z,99924.40
2023-02-15T18:44:39.761Z,99923.80
2023-02-15T18:47:16.325Z,99919.60
2023-02-15T18:49:53.202Z,99921.60
2023-02-15T18:52:36.268Z,99916.80
2023-02-15T18:55:29.263Z,99921.40
2023-02-15T18:58:06.225Z,99923.40
2023-02-15T19:00:43.540Z,99918.80
2023-02-15T19:03:20.687Z,99914.00
2023-02-15T19:05:57.385Z,99918.40
2023-02-15T19:08:33.961Z,99916.60
2023-02-15T19:11:16.887Z,99913.80
2023-02-15T19:13:54.357Z,99913.60
2023-02-15T19:16:38.447Z,99912.80
2023-02-15T19:19:14.895Z,99911.40
2023-02-15T19:21:52.074Z,99911.80
2023-02-15T19:24:38.122Z,99911.00
2023-02-15T19:27:27.435Z,99909.40
2023-02-15T19:30:09.854Z,99903.80
2023-02-15T19:32:47.514Z,99902.00
2023-02-15T19:35:28.098Z,99899.40
2023-02-15T19:38:09.866Z,99894.80
2023-02-15T19:40:45.209Z,99896.40
2023-02-15T19:43:26.416Z,99897.20
2023-02-15T19:46:03.911Z,99894.20
2023-02-15T19:48:40.350Z,99900.80
2023-02-15T19:51:17.961Z,99897.80
2023-02-15T19:53:55.673Z,99892.80
2023-02-15T19:56:33.284Z,99891.40
2023-02-15T19:59:27.152Z,99891.20
2023-02-15T20:02:03.872Z,99892.40
2023-02-15T20:04:40.988Z,99883.40
2023-02-15T20:07:29.436Z,99885.00
2023-02-15T20:10:14.828Z,99887.00
2023-02-15T20:12:51.829Z,99885.20
2023-02-15T20:15:32.038Z,99887.40
2023-02-15T20:18:08.992Z,99887.80
2023-02-15T20:20:50.561Z,99882.00
2023-02-15T20:23:31.656Z,99882.40
2023-02-15T20:26:18.705Z,99880.00
2023-02-15T20:28:55.503Z,99877.40
2023-02-15T20:31:33.017Z,99877.20
2023-02-15T20:34:10.019Z,99876.40
2023-02-15T20:36:46.790Z,99878.80
2023-02-15T20:39:23.750Z,99872.00
2023-02-15T20:42:00.411Z,99871.00
2023-02-15T20:44:37.562Z,99864.40
2023-02-15T20:47:14.296Z,99864.20
2023-02-15T20:49:51.466Z,99863.80
2023-02-15T20:52:27.905Z,99860.00
2023-02-15T20:55:04.604Z,99862.60
2023-02-15T20:57:41.003Z,99861.80
2023-02-15T21:00:25.713Z,99861.60
2023-02-15T21:03:12.443Z,99852.60
2023-02-15T21:05:49.821Z,99850.80
2023-02-15T21:08:28.503Z,99850.20
2023-02-15T21:11:05.653Z,99853.80
2023-02-15T21:13:43.015Z,99847.20
2023-02-15T21:16:20.367Z,99848.20
2023-02-15T21:18:56.978Z,99844.80
2023-02-15T21:21:33.431Z,99841.40
2023-02-15T21:24:16.767Z,99841.00
2023-02-15T21:26:53.991Z,99839.80
2023-02-15T21:29:32.836Z,99840.00
2023-02-15T21:32:11.043Z,99837.40
2023-02-15T21:34:48.066Z,99840.00
2023-02-15T21:37:38.025Z,99844.40
2023-02-15T21:40:30.930Z,99839.80
2023-02-15T21:43:30.285Z,99843.40
2023-02-15T21:46:34.519Z,99836.40
2023-02-15T21:49:11.455Z,99829.00
2023-02-15T21:52:05.337Z,99825.80
2023-02-15T21:54:42.001Z,99827.20
2023-02-15T21:57:22.381Z,99825.00
2023-02-15T21:59:58.853Z,99828.20
2023-02-15T22:02:36.312Z,99821.40
2023-02-15T22:05:22.442Z,99818.80
2023-02-15T22:07:58.763Z,99824.00
2023-02-15T22:10:36.691Z,99821.80
2023-02-15T22:13:22.305Z,99822.80
2023-02-15T22:15:59.778Z,99818.00
2023-02-15T22:18:37.599Z,99819.00
2023-02-15T22:21:16.671Z,99816.00
2023-02-15T22:23:52.986Z,99818.40
2023-02-15T22:26:31.297Z,99816.60
2023-02-15T22:29:08.462Z,99814.60
2023-02-15T22:31:45.255Z,99815.00
2023-02-15T22:34:34.246Z,99812.60
2023-02-15T22:37:11.850Z,99808.40
2023-02-15T22:39:50.638Z,99813.60
2023-02-15T22:42:31.003Z,99811.60
2023-02-15T22:45:08.252Z,99805.20
2023-02-15T22:47:44.874Z,99800.00
2023-02-15T22:50:26.473Z,99795.80
2023-02-15T22:53:05.126Z,99793.80
2023-02-15T22:55:43.001Z,99792.80
2023-02-15T22:58:26.166Z,99791.20
2023-02-15T23:01:03.870Z,99791.20
2023-02-15T23:03:40.605Z,99790.00
2023-02-15T23:06:18.632Z,99793.00
2023-02-15T23:08:54.909Z,99791.80
2023-02-15T23:11:31.528Z,99790.00
2023-02-15T23:14:07.853Z,99787.20
2023-02-15T23:16:44.275Z,99786.40
2023-02-15T23:19:20.838Z,99783.80
2023-02-15T23:21:57.693Z,99779.40
2023-02-15T23:24:35.628Z,99783.80
2023-02-15T23:27:36.594Z,99779.60
2023-02-15T23:30:20.111Z,99775.20
2023-02-15T23:33:02.805Z,99778.60
2023-02-15T23:35:39.046Z,99775.00
2023-02-15T23:38:31.296Z,99772.00
2023-02-15T23:41:20.934Z,99774.40
2023-02-15T23:44:05.464Z,99773.20
2023-02-15T23:46:47.239Z,99773.20
2023-02-15T23:49:24.760Z,99769.80
2023-02-15T23:52:02.113Z,99770.60
2023-02-15T23:54:38.794Z,99766.80
2023-02-15T23:57:17.484Z,99762.40
2023-02-15T23:59:54.312Z,99762.40
